Time;durP1;ratioP1;P1;durP2;ratioP2;P2;SDS_P1;SDS_P2;PMS_P1;PMS_P2;Temp;Humidity;BMP_temperature;BMP_pressure;BME280_temperature;BME280_humidity;BME280_pressure;Samples;Min_cycle;Max_cycle;Signal;HPM_P1;HPM_P2
2021/12/09 00:00:16;;;;;;;19.97;8.47;;;-3.10;99.90;;;;;;4275863;33;20178;-66
2021/12/09 00:02:44;;;;;;;20.70;8.70;;;-3.10;99.90;;;;;;4288356;33;20236;-66
2021/12/09 00:05:16;;;;;;;18.87;8.93;;;-3.10;99.90;;;;;;4276363;33;20188;-66
2021/12/09 00:07:52;;;;;;;21.67;8.60;;;-3.20;99.90;;;;;;4275617;33;20260;-66
2021/12/09 00:10:26;;;;;;;18.83;8.73;;;-3.30;99.90;;;;;;4277326;33;20193;-66
2021/12/09 00:12:53;;;;;;;21.23;8.83;;;-3.30;99.90;;;;;;4287962;33;20221;-66
2021/12/09 00:15:21;;;;;;;18.20;8.17;;;-3.30;99.90;;;;;;4275834;33;20204;-66
2021/12/09 00:17:52;;;;;;;19.00;9.10;;;-3.40;99.90;;;;;;4276394;33;20201;-65
2021/12/09 00:20:19;;;;;;;20.07;8.63;;;-3.40;99.90;;;;;;4288599;33;20201;-66
2021/12/09 00:22:47;;;;;;;20.63;8.87;;;-3.40;99.90;;;;;;4277250;33;20186;-66
2021/12/09 00:25:15;;;;;;;18.67;8.43;;;-3.40;99.90;;;;;;4277257;33;20178;-66
2021/12/09 00:27:52;;;;;;;19.13;8.73;;;-3.50;99.90;;;;;;4276923;33;20201;-66
2021/12/09 00:30:20;;;;;;;21.53;9.50;;;-3.40;99.90;;;;;;4276225;33;20195;-66
2021/12/09 00:32:49;;;;;;;20.90;9.37;;;-3.40;99.90;;;;;;4287270;33;20181;-66
2021/12/09 00:35:18;;;;;;;21.60;9.33;;;-3.40;99.90;;;;;;4276936;33;20151;-66
2021/12/09 00:38:22;;;;;;;21.40;9.37;;;-3.30;99.90;;;;;;4277932;33;20142;-66
2021/12/09 00:40:40;;;;;;;21.10;9.40;;;-3.40;99.90;;;;;;4277071;33;20193;-66
2021/12/09 00:43:07;;;;;;;22.97;9.67;;;-3.30;99.90;;;;;;4275547;33;20186;-66
2021/12/09 00:45:37;;;;;;;24.77;10.27;;;-3.40;99.90;;;;;;4276584;33;20218;-66
2021/12/09 00:48:05;;;;;;;23.83;10.03;;;-3.40;99.90;;;;;;4275940;33;20179;-66
2021/12/09 00:50:32;;;;;;;23.97;10.77;;;-3.40;99.90;;;;;;4287961;33;20275;-66
2021/12/09 00:53:00;;;;;;;20.63;10.27;;;-3.40;99.90;;;;;;4287283;33;20186;-66
2021/12/09 00:55:27;;;;;;;21.93;10.77;;;-3.40;99.90;;;;;;4287523;33;20170;-66
2021/12/09 00:57:55;;;;;;;24.57;10.60;;;-3.30;99.90;;;;;;4287848;33;20197;-66
2021/12/09 01:00:23;;;;;;;23.90;11.00;;;-3.30;99.90;;;;;;4275436;33;20261;-66
2021/12/09 01:02:50;;;;;;;22.83;10.20;;;-3.30;99.90;;;;;;4275292;33;20187;-66
2021/12/09 01:05:18;;;;;;;22.17;10.63;;;-3.30;99.90;;;;;;4274973;33;20177;-66
2021/12/09 01:07:46;;;;;;;22.70;10.70;;;-3.30;99.90;;;;;;4276555;33;20169;-66
2021/12/09 01:10:15;;;;;;;24.57;10.77;;;-3.30;99.90;;;;;;4275470;33;20248;-66
2021/12/09 01:12:44;;;;;;;24.57;10.70;;;-3.40;99.90;;;;;;4261136;33;20201;-66
2021/12/09 01:15:13;;;;;;;26.57;11.30;;;-3.50;99.90;;;;;;4272820;33;20179;-66
2021/12/09 01:17:41;;;;;;;25.30;10.87;;;-3.50;99.90;;;;;;4261028;33;20212;-66
2021/12/09 01:20:15;;;;;;;23.73;10.77;;;-3.50;99.90;;;;;;4274086;33;20178;-66
2021/12/09 01:22:43;;;;;;;25.67;11.07;;;-3.40;99.90;;;;;;4263340;33;20205;-66
2021/12/09 01:25:14;;;;;;;24.67;10.93;;;-3.50;99.90;;;;;;4262324;33;20234;-66
2021/12/09 01:27:46;;;;;;;25.00;10.97;;;-3.50;99.90;;;;;;4261148;33;20185;-66
2021/12/09 01:30:21;;;;;;;21.13;10.17;;;-3.50;99.90;;;;;;4262259;33;20201;-66
2021/12/09 01:32:53;;;;;;;24.33;11.13;;;-3.40;99.90;;;;;;4261072;33;20384;-66
2021/12/09 01:35:34;;;;;;;26.80;11.40;;;-3.40;99.90;;;;;;4261431;33;20240;-66
2021/12/09 01:38:11;;;;;;;25.50;10.70;;;-3.40;99.90;;;;;;4261148;33;20440;-66
2021/12/09 01:40:39;;;;;;;24.10;10.00;;;-3.40;99.90;;;;;;4261070;33;20414;-66
2021/12/09 01:43:07;;;;;;;20.93;9.77;;;-3.30;99.90;;;;;;4262220;33;20499;-66
2021/12/09 01:50:27;;;;;;;;;;;;;;;;;;;;;
2021/12/09 02:22:50;;;;;;;24.80;10.77;;;-3.50;99.90;;;;;;4273600;33;20429;-66
2021/12/09 02:26:25;;;;;;;;;;;;;;;;;;;;;
2021/12/09 02:29:41;;;;;;;27.37;10.17;;;-3.40;99.90;;;;;;4179086;34;20194;-66
2021/12/09 02:32:20;;;;;;;20.73;9.10;;;-3.50;99.90;;;;;;4179178;34;20172;-66
2021/12/09 02:35:01;;;;;;;21.87;9.80;;;-3.60;99.90;;;;;;4219019;34;20203;-66
2021/12/09 02:37:42;;;;;;;26.13;9.73;;;-3.60;99.90;;;;;;4245632;33;20198;-66
2021/12/09 02:40:18;;;;;;;21.63;9.83;;;-3.60;99.90;;;;;;4246055;33;20180;-66
2021/12/09 02:42:52;;;;;;;24.40;10.20;;;-3.60;99.90;;;;;;4246404;33;20183;-66
2021/12/09 02:45:27;;;;;;;25.13;10.10;;;-3.60;99.90;;;;;;4222514;34;20196;-66
2021/12/09 02:47:57;;;;;;;25.53;10.33;;;-3.60;99.90;;;;;;4222234;34;20279;-66
2021/12/09 02:50:25;;;;;;;24.93;10.40;;;-3.60;99.90;;;;;;4223036;34;20320;-66
2021/12/09 02:52:52;;;;;;;24.10;10.73;;;-3.60;99.90;;;;;;4233640;34;20634;-66
2021/12/09 02:55:19;;;;;;;22.13;10.20;;;-3.60;99.90;;;;;;4222606;34;20193;-66
2021/12/09 02:57:50;;;;;;;23.60;9.97;;;-3.60;99.90;;;;;;4221516;34;20206;-66
2021/12/09 03:00:20;;;;;;;22.97;10.00;;;-3.60;99.90;;;;;;4245915;33;20191;-66
2021/12/09 03:02:51;;;;;;;23.47;10.27;;;-3.70;99.90;;;;;;4233669;34;20501;-66
2021/12/09 03:05:19;;;;;;;26.70;10.47;;;-3.70;99.90;;;;;;4250672;33;20595;-66
2021/12/09 03:07:47;;;;;;;22.60;9.80;;;-3.70;99.90;;;;;;4279263;33;20583;-66
2021/12/09 03:10:25;;;;;;;25.57;10.33;;;-3.70;99.90;;;;;;4279178;33;20453;-66
2021/12/09 03:12:55;;;;;;;23.87;10.20;;;-3.80;99.90;;;;;;4279314;33;20173;-67
2021/12/09 03:15:27;;;;;;;25.00;10.17;;;-3.70;99.90;;;;;;4279521;33;20174;-66
2021/12/09 03:18:10;;;;;;;22.27;10.67;;;-3.70;99.90;;;;;;4269310;33;20205;-66
2021/12/09 03:20:38;;;;;;;23.40;9.87;;;-3.70;99.90;;;;;;4280180;33;20272;-66
2021/12/09 03:23:09;;;;;;;29.17;10.33;;;-3.70;99.90;;;;;;4279861;33;20455;-66
2021/12/09 03:25:42;;;;;;;22.33;10.40;;;-3.70;99.90;;;;;;4279161;33;20229;-66
2021/12/09 03:28:10;;;;;;;21.07;9.30;;;-3.70;99.90;;;;;;4279232;33;20199;-66
2021/12/09 03:30:40;;;;;;;20.10;9.43;;;-3.70;99.90;;;;;;4292673;33;20186;-66
2021/12/09 03:33:08;;;;;;;22.53;9.93;;;-3.70;99.90;;;;;;4278954;33;20255;-66
2021/12/09 03:35:35;;;;;;;22.23;9.60;;;-3.60;99.90;;;;;;4279231;33;20268;-66
2021/12/09 03:38:04;;;;;;;19.70;9.67;;;-3.70;99.90;;;;;;4279220;33;20224;-66
2021/12/09 03:40:34;;;;;;;21.97;9.73;;;-3.70;99.90;;;;;;4278374;33;20472;-66
2021/12/09 03:43:02;;;;;;;21.97;9.43;;;-3.70;99.90;;;;;;4280306;33;20504;-66
2021/12/09 03:45:30;;;;;;;19.00;9.40;;;-3.60;99.90;;;;;;4278713;33;20426;-66
2021/12/09 03:47:58;;;;;;;21.87;9.70;;;-3.60;99.90;;;;;;4291770;33;20419;-66
2021/12/09 03:50:28;;;;;;;24.00;9.80;;;-3.60;99.90;;;;;;4279567;33;20178;-67
2021/12/09 03:52:56;;;;;;;21.60;9.83;;;-3.70;99.90;;;;;;4279184;33;20184;-66
2021/12/09 03:55:23;;;;;;;23.10;9.93;;;-3.60;99.90;;;;;;4291799;33;20452;-66
2021/12/09 03:57:51;;;;;;;20.80;10.00;;;-3.70;99.90;;;;;;4278821;33;20524;-66
2021/12/09 04:00:19;;;;;;;20.33;9.07;;;-3.70;99.90;;;;;;4279365;33;20303;-66
2021/12/09 04:02:47;;;;;;;21.67;9.47;;;-3.70;99.90;;;;;;4280003;33;20285;-66
2021/12/09 04:05:15;;;;;;;19.90;9.50;;;-3.60;99.90;;;;;;4279718;33;20244;-66
2021/12/09 04:07:49;;;;;;;21.17;9.50;;;-3.60;99.90;;;;;;4278870;33;20185;-66
2021/12/09 04:10:20;;;;;;;18.83;9.00;;;-3.70;99.90;;;;;;4277940;33;20182;-66
2021/12/09 04:12:48;;;;;;;22.90;9.83;;;-3.70;99.90;;;;;;4291873;33;20507;-66
2021/12/09 04:15:16;;;;;;;20.70;9.40;;;-3.80;99.90;;;;;;4279604;33;20260;-66
2021/12/09 04:17:44;;;;;;;19.53;9.27;;;-3.80;99.90;;;;;;4278205;33;20362;-66
2021/12/09 04:20:12;;;;;;;20.90;9.37;;;-3.70;99.90;;;;;;4278501;33;20170;-66
2021/12/09 04:22:48;;;;;;;20.20;9.37;;;-3.70;99.90;;;;;;4272834;33;20550;-66
2021/12/09 04:25:25;;;;;;;18.90;8.87;;;-3.70;99.90;;;;;;4278147;33;20546;-66
2021/12/09 04:28:01;;;;;;;21.13;9.43;;;-3.70;99.90;;;;;;4278254;33;20532;-66
2021/12/09 04:30:32;;;;;;;20.93;9.27;;;-3.80;99.90;;;;;;4278777;33;20190;-66
2021/12/09 04:33:00;;;;;;;24.80;9.67;;;-3.80;99.90;;;;;;4277487;33;20173;-66
2021/12/09 04:35:31;;;;;;;20.83;9.53;;;-3.80;99.90;;;;;;4292404;33;20240;-66
2021/12/09 04:38:02;;;;;;;25.57;9.93;;;-3.80;99.90;;;;;;4278205;33;20174;-66
2021/12/09 04:40:30;;;;;;;21.77;9.60;;;-3.80;99.90;;;;;;4290331;33;20251;-66
2021/12/09 04:43:00;;;;;;;20.23;9.27;;;-3.70;99.90;;;;;;4277848;33;20245;-66
2021/12/09 04:45:30;;;;;;;20.07;9.57;;;-3.70;99.90;;;;;;4278366;33;20209;-67
2021/12/09 04:48:01;;;;;;;21.63;10.17;;;-3.60;99.90;;;;;;4278169;33;20229;-66
2021/12/09 04:50:31;;;;;;;24.53;9.90;;;-3.70;99.90;;;;;;4291873;33;20245;-66
2021/12/09 04:53:05;;;;;;;18.97;9.13;;;-3.60;99.90;;;;;;4290593;33;20248;-66
2021/12/09 04:55:33;;;;;;;18.50;9.20;;;-3.60;99.90;;;;;;4291069;33;20147;-66
2021/12/09 04:58:01;;;;;;;22.10;9.83;;;-3.60;99.90;;;;;;4291286;33;20197;-66
2021/12/09 05:00:32;;;;;;;18.73;8.77;;;-3.60;99.90;;;;;;4279220;33;20174;-66
2021/12/09 05:03:11;;;;;;;16.93;8.83;;;-3.60;99.90;;;;;;4277749;33;20200;-66
2021/12/09 05:05:48;;;;;;;21.23;9.37;;;-3.60;99.90;;;;;;4278666;33;20197;-66
2021/12/09 05:08:22;;;;;;;18.60;8.33;;;-3.50;99.90;;;;;;4277621;33;20224;-66
2021/12/09 05:10:59;;;;;;;21.07;9.23;;;-3.50;99.90;;;;;;4277420;33;20204;-66
2021/12/09 05:13:29;;;;;;;18.90;8.87;;;-3.50;99.90;;;;;;4290732;33;20248;-66
2021/12/09 05:15:58;;;;;;;20.97;9.27;;;-3.50;99.90;;;;;;4290740;33;20466;-66
2021/12/09 05:18:35;;;;;;;21.83;9.53;;;-3.60;99.90;;;;;;4291002;33;20209;-66
2021/12/09 05:21:11;;;;;;;17.90;8.97;;;-3.60;99.90;;;;;;4278757;33;20244;-67
2021/12/09 05:23:41;;;;;;;19.50;8.93;;;-3.60;99.90;;;;;;4290599;33;20190;-66
2021/12/09 05:26:09;;;;;;;17.37;9.40;;;-3.60;99.90;;;;;;4291023;33;20201;-66
2021/12/09 05:28:52;;;;;;;20.77;9.47;;;-3.60;99.90;;;;;;4279019;33;20157;-67
2021/12/09 05:34:08;;;;;;;20.07;9.20;;;-3.60;99.90;;;;;;4277205;33;20204;-66
2021/12/09 05:36:37;;;;;;;19.03;8.87;;;-3.60;99.90;;;;;;4278288;33;20208;-66
2021/12/09 05:39:08;;;;;;;18.67;9.37;;;-3.60;99.90;;;;;;4277639;33;20162;-66
2021/12/09 05:41:40;;;;;;;20.13;9.70;;;-3.60;99.90;;;;;;4278497;33;20278;-66
2021/12/09 05:44:22;;;;;;;18.77;9.33;;;-3.70;99.90;;;;;;4289385;33;20211;-66
2021/12/09 05:46:49;;;;;;;21.80;10.03;;;-3.60;99.90;;;;;;4277587;33;20238;-66
2021/12/09 05:49:17;;;;;;;19.90;9.37;;;-3.60;99.90;;;;;;4277977;33;20201;-66
2021/12/09 05:51:45;;;;;;;19.47;9.80;;;-3.60;99.90;;;;;;4277874;33;20574;-66
2021/12/09 05:54:13;;;;;;;22.63;10.00;;;-3.60;99.90;;;;;;4277384;33;20181;-66
2021/12/09 05:56:49;;;;;;;23.20;10.23;;;-3.60;99.90;;;;;;4290353;33;20467;-66
2021/12/09 05:59:45;;;;;;;18.23;8.90;;;-3.60;99.90;;;;;;4287684;33;20222;-66
2021/12/09 06:02:42;;;;;;;20.53;9.83;;;-3.50;99.90;;;;;;4276608;33;20631;-66
2021/12/09 06:06:14;;;;;;;19.97;9.90;;;-3.50;99.90;;;;;;4231871;34;20231;-67
2021/12/09 06:09:48;;;;;;;21.77;9.27;;;-3.60;99.90;;;;;;4163581;34;20208;-67
2021/12/09 06:12:37;;;;;;;19.73;8.93;;;-3.50;99.90;;;;;;4192358;34;20234;-66
2021/12/09 06:19:32;;;;;;;20.13;9.00;;;-3.50;99.90;;;;;;4135896;34;20619;-67
2021/12/09 06:26:18;;;;;;;21.53;10.10;;;-3.40;99.90;;;;;;4070830;35;20167;-68
2021/12/09 06:51:35;;;;;;;23.90;10.03;;;-3.40;99.90;;;;;;5282615;27;20171;-66
2021/12/09 06:54:06;;;;;;;25.83;10.50;;;-3.50;99.90;;;;;;5271304;27;20146;-67
2021/12/09 06:59:34;;;;;;;21.23;9.83;;;-3.50;99.90;;;;;;5228343;27;20157;-66
2021/12/09 07:02:02;;;;;;;24.13;10.13;;;-3.50;99.90;;;;;;5230278;27;20161;-67
2021/12/09 07:04:30;;;;;;;23.57;10.67;;;-3.50;99.90;;;;;;5229430;27;20161;-67
2021/12/09 07:07:04;;;;;;;23.80;11.10;;;-3.40;99.90;;;;;;5229820;27;20370;-67
2021/12/09 07:09:32;;;;;;;22.60;10.60;;;-3.40;99.90;;;;;;5229535;27;20214;-67
2021/12/09 07:12:02;;;;;;;25.50;11.13;;;-3.40;99.90;;;;;;5227886;27;20143;-67
2021/12/09 07:14:30;;;;;;;26.87;11.00;;;-3.30;99.90;;;;;;5228766;27;20143;-67
2021/12/09 07:16:59;;;;;;;21.17;10.93;;;-3.30;99.90;;;;;;5229286;27;20138;-67
2021/12/09 07:19:27;;;;;;;23.53;11.07;;;-3.30;99.90;;;;;;5230023;27;20163;-67
2021/12/09 07:21:55;;;;;;;24.03;11.13;;;-3.30;99.90;;;;;;5228690;27;20194;-67
2021/12/09 07:24:22;;;;;;;23.13;10.17;;;-3.30;99.90;;;;;;5229066;27;20147;-67
2021/12/09 07:26:53;;;;;;;24.73;10.43;;;-3.30;99.90;;;;;;5228504;27;20132;-67
2021/12/09 07:29:25;;;;;;;24.03;10.80;;;-3.30;99.90;;;;;;5230257;27;20165;-66
2021/12/09 07:31:52;;;;;;;22.53;10.10;;;-3.20;99.90;;;;;;5229207;27;20166;-66
2021/12/09 07:34:21;;;;;;;20.37;9.93;;;-3.20;99.90;;;;;;5228469;27;20150;-66
2021/12/09 07:37:03;;;;;;;22.93;10.40;;;-3.20;99.90;;;;;;5251018;27;20203;-66
2021/12/09 07:39:35;;;;;;;23.40;11.00;;;-3.20;99.90;;;;;;5268707;27;20181;-66
2021/12/09 07:42:03;;;;;;;24.30;11.37;;;-3.20;99.90;;;;;;5269018;27;20190;-66
2021/12/09 07:44:53;;;;;;;22.87;10.73;;;-3.20;99.90;;;;;;5266255;27;20182;-67
2021/12/09 07:47:31;;;;;;;26.23;11.10;;;-3.10;99.90;;;;;;5266131;27;20157;-67
2021/12/09 07:50:00;;;;;;;23.13;10.80;;;-3.10;99.90;;;;;;5264014;27;20158;-67
2021/12/09 07:52:30;;;;;;;25.20;10.63;;;-3.10;99.90;;;;;;5264295;27;20164;-67
2021/12/09 07:54:58;;;;;;;23.03;10.87;;;-3.10;99.90;;;;;;5264177;27;20147;-67
2021/12/09 07:57:54;;;;;;;25.23;11.57;;;-3.00;99.90;;;;;;5263896;27;20137;-67
2021/12/09 08:00:37;;;;;;;23.77;11.13;;;-3.00;99.90;;;;;;5262144;27;20153;-67
2021/12/09 08:03:53;;;;;;;23.80;11.03;;;-3.00;99.90;;;;;;5264361;27;20139;-67
2021/12/09 08:07:32;;;;;;;23.63;10.63;;;-3.00;99.90;;;;;;5263673;27;20152;-66
2021/12/09 08:15:45;;;;;;;;;;;;;;;;;;;;;
2021/12/09 08:45:29;;;;;;;24.73;10.93;;;-2.60;99.90;;;;;;5316025;26;20504;-67
2021/12/09 08:48:24;;;;;;;25.07;10.77;;;-2.60;99.90;;;;;;5275068;27;20184;-67
2021/12/09 08:50:52;;;;;;;24.83;11.23;;;-2.50;99.90;;;;;;5272948;27;20364;-67
2021/12/09 08:53:23;;;;;;;23.63;11.33;;;-2.50;99.90;;;;;;5273374;27;20188;-67
2021/12/09 08:55:54;;;;;;;24.90;11.50;;;-2.40;99.90;;;;;;5272672;27;20140;-67
2021/12/09 08:58:28;;;;;;;24.97;11.30;;;-2.40;99.90;;;;;;5273094;27;20182;-67
2021/12/09 09:01:19;;;;;;;25.20;11.87;;;-2.40;99.90;;;;;;5294921;27;20108;-68
2021/12/09 09:09:19;;;;;;;23.10;10.93;;;-2.30;99.90;;;;;;5001038;28;20123;-67
2021/12/09 09:12:07;;;;;;;27.20;12.10;;;-2.30;99.90;;;;;;4982754;28;20129;-67
2021/12/09 09:14:34;;;;;;;27.47;12.70;;;-2.30;99.90;;;;;;5002889;28;20155;-67
2021/12/09 09:18:09;;;;;;;25.23;12.47;;;-2.30;99.90;;;;;;5020912;28;20203;-67
2021/12/09 09:20:56;;;;;;;25.53;11.83;;;-2.30;99.90;;;;;;4962739;29;20130;-67
2021/12/09 09:23:22;;;;;;;25.73;12.17;;;-2.20;99.90;;;;;;4962826;28;20148;-67
2021/12/09 09:26:38;;;;;;;25.07;12.23;;;-2.20;99.90;;;;;;4962019;28;20159;-67
2021/12/09 09:29:39;;;;;;;23.90;11.40;;;-2.10;99.90;;;;;;4923893;29;20195;-67
2021/12/09 09:36:03;;;;;;;27.83;12.70;;;-2.00;99.90;;;;;;4920645;29;20160;-67
2021/12/09 09:38:48;;;;;;;;;;;;;;;;;;;;;
2021/12/09 09:42:20;;;;;;;27.13;12.57;;;-2.10;99.90;;;;;;4936794;29;20145;-67
2021/12/09 09:45:18;;;;;;;27.17;12.63;;;-2.10;99.90;;;;;;4483278;31;20558;-67
2021/12/09 09:48:06;;;;;;;25.80;12.27;;;-2.10;99.90;;;;;;4467962;32;20177;-67
2021/12/09 09:59:17;;;;;;;25.27;11.97;;;-2.10;99.90;;;;;;4315512;33;20498;-67
2021/12/09 10:01:52;;;;;;;28.30;13.43;;;-2.00;99.90;;;;;;4309545;33;20184;-67
2021/12/09 10:04:31;;;;;;;28.97;13.30;;;-2.00;99.90;;;;;;4344681;33;20203;-67
2021/12/09 10:07:03;;;;;;;25.03;12.77;;;-1.90;99.90;;;;;;4345348;33;20195;-67
2021/12/09 10:09:32;;;;;;;29.10;12.80;;;-1.90;99.90;;;;;;4331963;33;20271;-67
2021/12/09 10:12:05;;;;;;;28.97;13.17;;;-1.90;99.90;;;;;;4332604;33;20164;-67
2021/12/09 10:14:41;;;;;;;27.03;13.20;;;-1.90;99.90;;;;;;4332584;33;20180;-67
2021/12/09 10:17:18;;;;;;;30.30;13.63;;;-1.80;99.90;;;;;;4332691;33;20172;-67
2021/12/09 10:20:13;;;;;;;26.67;13.13;;;-1.80;99.90;;;;;;4344574;33;20165;-67
2021/12/09 10:23:01;;;;;;;26.10;12.23;;;-1.70;99.90;;;;;;4342447;33;20181;-66
2021/12/09 10:25:34;;;;;;;27.13;13.17;;;-1.80;99.90;;;;;;4362820;32;20167;-66
2021/12/09 10:28:11;;;;;;;28.47;13.63;;;-1.70;99.90;;;;;;4391041;32;20230;-66
2021/12/09 10:30:42;;;;;;;29.10;13.23;;;-1.70;99.90;;;;;;4404254;32;20195;-67
2021/12/09 10:33:22;;;;;;;27.80;13.30;;;-1.70;99.90;;;;;;4404164;32;20182;-67
2021/12/09 10:35:50;;;;;;;27.80;13.80;;;-1.60;99.90;;;;;;4448236;32;20170;-66
2021/12/09 10:38:29;;;;;;;27.50;13.33;;;-1.60;99.90;;;;;;4466662;32;20165;-66
2021/12/09 10:40:58;;;;;;;28.77;13.20;;;-1.60;99.90;;;;;;4464974;32;20219;-67
2021/12/09 10:43:25;;;;;;;24.17;12.47;;;-1.70;99.90;;;;;;4456757;32;20551;-66
2021/12/09 10:45:53;;;;;;;25.20;13.10;;;-1.70;99.90;;;;;;4466140;32;20188;-67
2021/12/09 10:48:31;;;;;;;30.67;13.40;;;-1.70;99.90;;;;;;4467510;32;20139;-67
2021/12/09 10:53:47;;;;;;;26.53;12.53;;;-1.50;99.90;;;;;;4466491;32;20174;-66
2021/12/09 10:56:30;;;;;;;27.37;12.30;;;-1.50;99.90;;;;;;4455605;32;20200;-66
2021/12/09 10:58:58;;;;;;;24.37;11.73;;;-1.50;99.90;;;;;;4455702;32;20224;-67
2021/12/09 11:01:26;;;;;;;27.53;12.20;;;-1.60;99.90;;;;;;4456737;32;20206;-67
2021/12/09 11:04:09;;;;;;;23.37;11.43;;;-1.60;99.90;;;;;;4455236;32;20169;-67
2021/12/09 11:06:39;;;;;;;25.87;12.60;;;-1.60;99.90;;;;;;4455952;32;20228;-67
2021/12/09 11:09:24;;;;;;;22.90;11.73;;;-1.50;99.90;;;;;;4455376;32;20254;-67
2021/12/09 11:11:56;;;;;;;24.33;11.13;;;-1.50;99.90;;;;;;4454931;32;20227;-67
2021/12/09 11:14:27;;;;;;;26.10;11.50;;;-1.60;99.90;;;;;;4455274;32;20261;-67
2021/12/09 11:17:06;;;;;;;26.00;11.43;;;-1.60;99.90;;;;;;4455711;32;20191;-67
2021/12/09 11:19:47;;;;;;;22.50;11.03;;;-1.60;99.90;;;;;;4455606;32;20178;-66
2021/12/09 11:22:44;;;;;;;24.47;11.33;;;-1.70;99.90;;;;;;4456660;32;20142;-67
2021/12/09 11:25:35;;;;;;;25.37;11.00;;;-1.70;99.90;;;;;;4395712;32;20210;-66
2021/12/09 11:28:11;;;;;;;23.33;11.10;;;-1.60;99.90;;;;;;4396441;32;20179;-66
2021/12/09 11:31:07;;;;;;;23.97;11.60;;;-1.50;99.90;;;;;;4395628;32;20170;-66
2021/12/09 11:33:45;;;;;;;24.33;11.60;;;-1.50;99.90;;;;;;4408156;32;20211;-67
2021/12/09 11:36:17;;;;;;;22.47;10.77;;;-1.30;99.90;;;;;;4394974;32;20163;-66
2021/12/09 11:39:15;;;;;;;23.87;10.70;;;-1.20;99.90;;;;;;4395747;32;20179;-67
2021/12/09 11:41:43;;;;;;;22.93;12.13;;;-1.20;99.90;;;;;;4408532;32;20178;-67
2021/12/09 11:44:12;;;;;;;25.07;11.53;;;-1.20;99.90;;;;;;4394332;32;20199;-66
2021/12/09 11:46:40;;;;;;;24.27;11.33;;;-1.30;99.90;;;;;;4395005;32;20268;-67
2021/12/09 11:49:29;;;;;;;24.27;12.27;;;-1.40;99.90;;;;;;4394938;32;20266;-67
2021/12/09 11:52:01;;;;;;;24.93;11.17;;;-1.30;99.90;;;;;;4395129;32;20213;-67
2021/12/09 11:54:35;;;;;;;26.07;11.80;;;-1.40;99.90;;;;;;4395287;32;20452;-67
2021/12/09 12:15:53;;;;;;;26.27;12.57;;;-1.50;99.90;;;;;;4439689;32;20186;-67
2021/12/09 12:18:51;;;;;;;28.20;11.47;;;-1.50;99.90;;;;;;4439429;32;20504;-67
2021/12/09 12:24:20;;;;;;;29.90;13.23;;;-1.40;99.90;;;;;;4438628;32;20216;-67
2021/12/09 12:29:51;;;;;;;32.90;13.50;;;-1.40;99.90;;;;;;4437603;32;20233;-67
2021/12/09 12:32:56;;;;;;;29.37;13.27;;;-1.40;99.90;;;;;;4438727;32;20638;-67
2021/12/09 12:40:39;;;;;;;31.10;12.93;;;-1.30;99.90;;;;;;4438683;32;20186;-68
2021/12/09 12:43:14;;;;;;;31.07;13.70;;;-1.20;99.90;;;;;;4438860;32;20179;-68
2021/12/09 12:46:05;;;;;;;32.90;14.33;;;-1.30;99.90;;;;;;4438945;32;20200;-67
2021/12/09 12:51:58;;;;;;;31.83;14.10;;;-1.30;99.90;;;;;;4450899;32;20186;-68
2021/12/09 12:57:03;;;;;;;30.03;13.70;;;-1.30;99.90;;;;;;4451198;32;20165;-68
2021/12/09 12:59:33;;;;;;;29.33;13.93;;;-1.20;99.90;;;;;;4438860;32;20188;-68
2021/12/09 13:02:03;;;;;;;28.77;13.40;;;-1.30;99.90;;;;;;4438632;32;20250;-67
2021/12/09 13:07:51;;;;;;;29.37;12.93;;;-1.40;99.90;;;;;;4439121;32;20192;-68
2021/12/09 13:10:27;;;;;;;29.90;13.57;;;-1.40;99.90;;;;;;4453015;32;20232;-68
2021/12/09 13:13:02;;;;;;;30.50;14.03;;;-1.40;99.90;;;;;;4438769;32;20319;-68
2021/12/09 13:15:39;;;;;;;30.43;13.37;;;-1.40;99.90;;;;;;4438077;32;20174;-68
2021/12/09 13:18:19;;;;;;;26.50;13.17;;;-1.40;99.90;;;;;;4437944;32;20175;-68
2021/12/09 13:20:49;;;;;;;30.50;12.97;;;-1.50;99.90;;;;;;4438357;32;20185;-68
2021/12/09 13:23:24;;;;;;;29.07;11.87;;;-1.50;99.90;;;;;;4439303;32;20198;-68
2021/12/09 13:26:22;;;;;;;28.63;12.40;;;-1.40;99.90;;;;;;4446944;32;20201;-68
2021/12/09 13:29:14;;;;;;;31.03;12.50;;;-1.50;99.90;;;;;;4437809;32;20208;-68
2021/12/09 13:32:12;;;;;;;27.17;12.77;;;-1.50;99.90;;;;;;4439198;32;20268;-68
2021/12/09 13:34:50;;;;;;;28.60;12.53;;;-1.60;99.90;;;;;;4437995;32;20231;-68
2021/12/09 13:37:37;;;;;;;25.80;12.43;;;-1.60;99.90;;;;;;4438599;32;20241;-68
2021/12/09 13:46:07;;;;;;;25.80;12.57;;;-1.50;99.90;;;;;;4438226;32;20230;-67
2021/12/09 13:48:47;;;;;;;28.03;12.50;;;-1.60;99.90;;;;;;4437806;32;20170;-68
2021/12/09 13:51:30;;;;;;;32.40;12.73;;;-1.60;99.90;;;;;;4438116;32;20193;-68
2021/12/09 13:54:21;;;;;;;28.57;12.30;;;-1.60;99.90;;;;;;4438165;32;20197;-68
2021/12/09 13:56:53;;;;;;;31.40;12.03;;;-1.60;99.90;;;;;;4437840;32;20163;-68
2021/12/09 13:59:22;;;;;;;26.50;12.10;;;-1.60;99.90;;;;;;4437820;32;20235;-68
2021/12/09 14:01:52;;;;;;;24.90;12.07;;;-1.60;99.90;;;;;;4437639;32;20209;-68
2021/12/09 14:04:22;;;;;;;28.67;12.30;;;-1.60;99.90;;;;;;4438940;32;20186;-68
2021/12/09 14:07:23;;;;;;;26.57;12.53;;;-1.60;99.90;;;;;;4438387;32;20215;-68
2021/12/09 14:09:59;;;;;;;27.00;12.00;;;-1.60;99.90;;;;;;4439615;32;20200;-68
2021/12/09 14:12:32;;;;;;;30.40;12.57;;;-1.60;99.90;;;;;;4449725;32;20193;-68
2021/12/09 14:15:07;;;;;;;29.43;12.40;;;-1.50;99.90;;;;;;4437992;32;20234;-68
2021/12/09 14:17:41;;;;;;;23.63;11.20;;;-1.50;99.90;;;;;;4440429;32;20139;-68
2021/12/09 14:20:21;;;;;;;27.30;12.37;;;-1.50;99.90;;;;;;4437915;32;20184;-68
2021/12/09 14:22:50;;;;;;;29.93;13.10;;;-1.50;99.90;;;;;;4438696;32;20196;-68
2021/12/09 14:25:33;;;;;;;29.63;12.40;;;-1.50;99.90;;;;;;4436675;32;20246;-68
2021/12/09 14:28:03;;;;;;;24.73;12.40;;;-1.50;99.90;;;;;;4438093;32;20170;-68
2021/12/09 14:30:31;;;;;;;28.27;12.33;;;-1.50;99.90;;;;;;4439921;32;20170;-68
2021/12/09 14:33:00;;;;;;;32.33;13.43;;;-1.50;99.90;;;;;;4440429;32;20182;-68
2021/12/09 14:35:53;;;;;;;30.33;13.33;;;-1.50;99.90;;;;;;4441256;32;20230;-68
2021/12/09 14:38:23;;;;;;;27.93;13.13;;;-1.50;99.90;;;;;;4442035;32;20210;-67
2021/12/09 14:40:57;;;;;;;32.53;13.73;;;-1.40;99.90;;;;;;4440390;32;20196;-68
2021/12/09 14:43:27;;;;;;;29.40;13.30;;;-1.40;99.90;;;;;;4440535;32;20206;-68
2021/12/09 14:46:08;;;;;;;29.63;13.40;;;-1.40;99.90;;;;;;4439747;32;20190;-68
2021/12/09 14:48:42;;;;;;;33.77;14.53;;;-1.50;99.90;;;;;;4440356;32;20181;-68
2021/12/09 14:51:17;;;;;;;34.93;14.73;;;-1.50;99.90;;;;;;4440115;32;20213;-68
2021/12/09 14:53:50;;;;;;;32.50;14.57;;;-1.50;99.90;;;;;;4440636;32;20208;-68
2021/12/09 14:56:34;;;;;;;37.87;15.10;;;-1.50;99.90;;;;;;4440648;32;20174;-69
2021/12/09 14:59:29;;;;;;;33.20;14.13;;;-1.50;99.90;;;;;;4443900;32;20228;-68
2021/12/09 15:02:29;;;;;;;35.70;13.63;;;-1.50;99.90;;;;;;4451840;32;20244;-68
2021/12/09 15:05:11;;;;;;;30.87;13.83;;;-1.40;99.90;;;;;;4456547;32;20638;-68
2021/12/09 15:07:52;;;;;;;31.67;13.70;;;-1.40;99.90;;;;;;4455228;32;20166;-68
2021/12/09 15:10:30;;;;;;;33.03;13.63;;;-1.40;99.90;;;;;;4455848;32;20211;-68
2021/12/09 15:13:10;;;;;;;35.13;14.83;;;-1.40;99.90;;;;;;4455246;32;20177;-68
2021/12/09 15:15:38;;;;;;;35.60;14.33;;;-1.50;99.90;;;;;;4455609;32;20595;-68
2021/12/09 15:18:09;;;;;;;33.63;14.20;;;-1.50;99.90;;;;;;4455342;32;20215;-68
2021/12/09 15:20:43;;;;;;;36.90;13.47;;;-1.50;99.90;;;;;;4442262;32;20212;-68
2021/12/09 15:23:48;;;;;;;35.67;13.80;;;-1.50;99.90;;;;;;4455858;32;20504;-68
2021/12/09 15:26:26;;;;;;;32.73;13.00;;;-1.50;99.90;;;;;;4455443;32;20378;-67
2021/12/09 15:29:04;;;;;;;37.00;14.37;;;-1.50;99.90;;;;;;4455750;32;20188;-68
2021/12/09 15:31:39;;;;;;;35.70;14.27;;;-1.50;99.90;;;;;;4455289;32;20189;-68
2021/12/09 15:34:13;;;;;;;33.17;12.87;;;-1.50;99.90;;;;;;4455270;32;20175;-68
2021/12/09 15:36:45;;;;;;;33.70;13.20;;;-1.50;99.90;;;;;;4455930;32;20703;-68
2021/12/09 15:39:20;;;;;;;36.20;14.10;;;-1.50;99.90;;;;;;4441355;32;20568;-68
2021/12/09 15:41:52;;;;;;;35.23;13.73;;;-1.50;99.90;;;;;;4439948;32;20230;-68
2021/12/09 15:44:22;;;;;;;34.13;13.93;;;-1.50;99.90;;;;;;4440597;32;20290;-68
2021/12/09 15:47:01;;;;;;;36.40;14.40;;;-1.50;99.90;;;;;;4438894;32;20197;-68
2021/12/09 15:49:47;;;;;;;37.97;14.00;;;-1.50;99.90;;;;;;4441450;32;20530;-69
2021/12/09 15:52:16;;;;;;;32.67;15.00;;;-1.50;99.90;;;;;;4441243;32;20206;-68
2021/12/09 15:54:51;;;;;;;37.17;14.63;;;-1.40;99.90;;;;;;4441253;32;20515;-68
2021/12/09 15:57:36;;;;;;;36.37;14.73;;;-1.40;99.90;;;;;;4438786;32;20265;-69
2021/12/09 16:00:08;;;;;;;38.37;15.60;;;-1.40;99.90;;;;;;4440020;32;20586;-69
2021/12/09 16:02:39;;;;;;;39.77;15.43;;;-1.40;99.90;;;;;;4441802;32;20132;-68
2021/12/09 16:05:09;;;;;;;44.43;16.73;;;-1.40;99.90;;;;;;4439216;32;20523;-68
2021/12/09 16:07:40;;;;;;;45.83;17.67;;;-1.40;99.90;;;;;;4439301;32;20178;-68
2021/12/09 16:10:09;;;;;;;42.00;17.00;;;-1.50;99.90;;;;;;4442991;32;20691;-68